createdAt,value
2017-11-27T00:02:06.769Z,98.00
2017-11-27T00:05:18.128Z,97.70
2017-11-27T00:08:27.929Z,97.70
2017-11-27T00:11:38.020Z,97.90
2017-11-27T00:14:47.898Z,98.10
2017-11-27T00:17:58.444Z,98.00
2017-11-27T00:21:08.306Z,97.90
2017-11-27T00:24:17.971Z,98.10
2017-11-27T00:27:29.403Z,98.00
2017-11-27T00:30:39.357Z,97.90
2017-11-27T00:33:49.268Z,97.80
2017-11-27T00:36:59.041Z,98.30
2017-11-27T00:40:08.824Z,97.90
2017-11-27T00:43:18.302Z,97.70
2017-11-27T00:46:28.011Z,97.80
2017-11-27T00:49:37.794Z,97.90
2017-11-27T00:52:48.309Z,98.30
2017-11-27T00:55:58.597Z,97.70
2017-11-27T00:59:08.540Z,97.70
2017-11-27T01:02:18.446Z,97.80
2017-11-27T01:05:29.254Z,97.60
2017-11-27T01:08:39.837Z,97.70
2017-11-27T01:11:50.649Z,97.60
2017-11-27T01:15:00.444Z,97.60
2017-11-27T01:18:10.431Z,97.60
2017-11-27T01:21:21.788Z,97.50
2017-11-27T01:24:31.797Z,97.50
2017-11-27T01:27:41.615Z,97.80
2017-11-27T01:30:51.552Z,97.60
2017-11-27T01:34:01.443Z,97.70
2017-11-27T01:37:12.173Z,97.60
2017-11-27T01:40:22.800Z,97.80
2017-11-27T01:43:32.826Z,97.50
2017-11-27T01:46:44.242Z,98.00
2017-11-27T01:49:54.464Z,97.70
2017-11-27T01:53:04.863Z,97.60
2017-11-27T01:56:15.842Z,97.70
2017-11-27T01:59:26.329Z,97.60
2017-11-27T02:02:37.200Z,97.70
2017-11-27T02:05:46.994Z,97.70
2017-11-27T02:08:56.930Z,97.80
2017-11-27T02:12:07.522Z,98.30
2017-11-27T02:15:17.450Z,98.00
2017-11-27T02:18:27.137Z,97.70
2017-11-27T02:21:37.012Z,97.80
2017-11-27T02:24:47.732Z,97.80
2017-11-27T02:27:57.589Z,97.70
2017-11-27T02:31:07.803Z,97.70
2017-11-27T02:34:18.454Z,97.70
2017-11-27T02:37:28.404Z,97.50
2017-11-27T02:40:39.046Z,97.50
2017-11-27T02:43:48.681Z,97.40
2017-11-27T02:46:58.463Z,97.40
2017-11-27T02:50:08.305Z,97.40
2017-11-27T02:53:18.827Z,97.40
2017-11-27T02:56:29.295Z,97.30
2017-11-27T02:59:40.579Z,97.40
2017-11-27T03:02:50.383Z,97.40
2017-11-27T03:06:01.483Z,97.40
2017-11-27T03:09:11.777Z,97.40
2017-11-27T03:12:22.290Z,97.50
2017-11-27T03:15:32.164Z,97.60
2017-11-27T03:18:43.208Z,97.70
2017-11-27T03:21:53.999Z,97.70
2017-11-27T03:25:03.891Z,97.50
2017-11-27T03:28:14.337Z,97.70
2017-11-27T03:31:24.818Z,97.70
2017-11-27T03:34:34.621Z,97.80
2017-11-27T03:37:45.168Z,98.00
2017-11-27T03:40:56.052Z,97.90
2017-11-27T03:44:06.629Z,98.10
2017-11-27T03:47:16.796Z,98.10
2017-11-27T03:50:27.213Z,98.10
2017-11-27T03:53:37.988Z,97.90
2017-11-27T03:56:47.715Z,97.90
2017-11-27T03:59:58.595Z,98.20
2017-11-27T04:03:09.005Z,98.00
2017-11-27T04:06:19.976Z,98.00
2017-11-27T04:09:30.386Z,97.90
2017-11-27T04:12:41.249Z,98.00
2017-11-27T04:15:51.405Z,98.10
2017-11-27T04:19:02.079Z,98.40
2017-11-27T04:22:12.442Z,98.50
2017-11-27T04:25:23.264Z,98.30
2017-11-27T04:28:33.836Z,98.20
2017-11-27T04:31:43.489Z,98.60
2017-11-27T04:34:53.277Z,98.40
2017-11-27T04:38:03.410Z,98.50
2017-11-27T04:41:13.871Z,98.40
2017-11-27T04:44:23.858Z,98.40
2017-11-27T04:47:34.347Z,98.30
2017-11-27T04:50:44.295Z,98.20
2017-11-27T04:53:54.536Z,98.00
2017-11-27T04:57:05.571Z,97.90
2017-11-27T05:00:15.584Z,97.90
2017-11-27T05:03:26.515Z,98.00
2017-11-27T05:06:37.089Z,97.80
2017-11-27T05:09:47.052Z,97.90
2017-11-27T05:12:57.404Z,97.90
2017-11-27T05:16:07.379Z,97.60
2017-11-27T05:19:18.158Z,97.60
2017-11-27T05:22:28.846Z,97.50
2017-11-27T05:25:39.346Z,97.70
2017-11-27T05:28:49.405Z,97.40
2017-11-27T05:31:59.901Z,97.60
2017-11-27T05:35:10.049Z,97.50
2017-11-27T05:38:20.674Z,97.30
2017-11-27T05:41:30.909Z,97.40
2017-11-27T05:44:42.127Z,97.10
2017-11-27T05:47:52.467Z,97.10
2017-11-27T05:51:03.801Z,97.20
2017-11-27T05:54:14.672Z,97.20
2017-11-27T05:57:25.115Z,97.30
2017-11-27T06:00:36.140Z,97.20
2017-11-27T06:03:47.455Z,97.30
2017-11-27T06:06:57.809Z,97.30
2017-11-27T06:10:07.724Z,97.20
2017-11-27T06:13:17.933Z,97.30
2017-11-27T06:16:28.424Z,97.20
2017-11-27T06:19:38.682Z,97.10
2017-11-27T06:22:48.882Z,97.10
2017-11-27T06:25:58.822Z,97.30
2017-11-27T06:29:10.041Z,97.20
2017-11-27T06:32:20.288Z,97.20
2017-11-27T06:35:30.778Z,97.30
2017-11-27T06:38:40.525Z,97.30
2017-11-27T06:41:50.101Z,97.30
2017-11-27T06:45:00.908Z,97.60
2017-11-27T06:48:10.653Z,97.40
2017-11-27T06:51:21.343Z,97.40
2017-11-27T06:54:32.053Z,97.50
2017-11-27T06:57:42.812Z,97.50
2017-11-27T07:00:52.541Z,97.20
2017-11-27T07:04:02.416Z,97.10
2017-11-27T07:07:13.861Z,97.10
2017-11-27T07:10:24.067Z,97.10
2017-11-27T07:13:35.286Z,97.40
2017-11-27T07:16:45.519Z,97.40
2017-11-27T07:19:56.486Z,97.40
2017-11-27T07:23:07.002Z,97.30
2017-11-27T07:26:18.252Z,96.90
2017-11-27T07:29:28.523Z,96.90
2017-11-27T07:32:39.037Z,97.00
2017-11-27T07:35:49.025Z,96.70
2017-11-27T07:39:05.799Z,96.70
2017-11-27T07:42:16.237Z,96.70
2017-11-27T07:45:26.895Z,96.60
2017-11-27T07:48:37.467Z,96.60
2017-11-27T07:51:47.470Z,96.70
2017-11-27T07:54:57.999Z,96.40
2017-11-27T07:58:08.631Z,96.10
2017-11-27T08:01:18.573Z,96.10
2017-11-27T08:04:29.549Z,96.20
2017-11-27T08:07:39.773Z,96.10
2017-11-27T08:10:49.881Z,95.80
2017-11-27T08:14:01.208Z,95.90
2017-11-27T08:17:11.469Z,95.90
2017-11-27T08:20:22.239Z,95.50
2017-11-27T08:23:32.909Z,95.60
2017-11-27T08:26:43.146Z,95.40
2017-11-27T08:29:53.923Z,95.20
2017-11-27T08:33:04.479Z,94.60
2017-11-27T08:36:14.839Z,94.60
2017-11-27T08:39:25.363Z,94.90
2017-11-27T08:42:35.296Z,94.70
2017-11-27T08:45:45.739Z,94.50
2017-11-27T08:48:55.823Z,93.50
2017-11-27T08:52:07.389Z,93.40
2017-11-27T08:55:18.132Z,93.40
2017-11-27T08:58:28.527Z,93.50
2017-11-27T09:01:39.346Z,93.20
2017-11-27T09:04:49.738Z,93.60
2017-11-27T09:08:00.200Z,93.40
2017-11-27T09:11:10.061Z,93.50
2017-11-27T09:14:19.646Z,92.90
2017-11-27T09:17:30.291Z,92.80
2017-11-27T09:20:41.529Z,92.80
2017-11-27T09:23:51.415Z,92.80
2017-11-27T09:27:01.549Z,93.00
2017-11-27T09:30:11.751Z,92.40
2017-11-27T09:33:21.367Z,92.60
2017-11-27T09:36:31.197Z,92.50
2017-11-27T09:39:41.981Z,92.40
2017-11-27T09:42:51.790Z,92.40
2017-11-27T09:46:02.057Z,92.30
2017-11-27T09:49:12.637Z,92.50
2017-11-27T09:52:23.628Z,92.60
2017-11-27T09:55:34.079Z,92.70
2017-11-27T09:58:44.992Z,93.00
2017-11-27T10:01:56.441Z,92.40
2017-11-27T10:05:06.865Z,92.40
2017-11-27T10:08:17.325Z,92.40
2017-11-27T10:11:27.126Z,92.20
2017-11-27T10:14:37.040Z,92.10
2017-11-27T10:17:47.636Z,91.20
2017-11-27T10:20:57.888Z,91.20
2017-11-27T10:24:09.017Z,91.30
2017-11-27T10:27:19.097Z,91.30
2017-11-27T10:30:29.048Z,91.50
2017-11-27T10:33:40.598Z,91.00
2017-11-27T10:36:51.439Z,91.00
2017-11-27T10:40:02.656Z,90.90
2017-11-27T10:43:13.709Z,90.80
2017-11-27T10:46:23.846Z,90.80
2017-11-27T10:49:33.576Z,90.60
2017-11-27T10:52:43.464Z,90.70
2017-11-27T10:55:53.388Z,91.00
2017-11-27T10:59:04.040Z,91.10
2017-11-27T11:02:14.270Z,91.10
2017-11-27T11:05:25.077Z,90.70
2017-11-27T11:08:34.414Z,90.40
2017-11-27T11:11:45.076Z,90.80
2017-11-27T11:14:55.834Z,90.60
2017-11-27T11:18:06.305Z,90.40
2017-11-27T11:21:16.093Z,90.40
2017-11-27T11:24:26.615Z,90.70
2017-11-27T11:27:36.713Z,90.60
2017-11-27T11:30:47.847Z,90.70
2017-11-27T11:33:58.315Z,90.70
2017-11-27T11:37:07.888Z,90.20
2017-11-27T11:40:20.764Z,90.20
2017-11-27T11:43:28.722Z,90.20
2017-11-27T11:46:38.667Z,90.00
2017-11-27T11:49:49.140Z,90.10
2017-11-27T11:52:59.889Z,88.80
2017-11-27T11:56:09.173Z,88.70
2017-11-27T11:59:20.119Z,89.80
2017-11-27T12:02:30.721Z,89.40
2017-11-27T12:05:40.724Z,89.30
2017-11-27T12:08:52.160Z,89.90
2017-11-27T12:12:01.925Z,89.80
2017-11-27T12:15:11.830Z,89.50
2017-11-27T12:18:21.732Z,89.40
2017-11-27T12:21:32.026Z,88.90
2017-11-27T12:24:42.214Z,90.00
2017-11-27T12:27:52.795Z,89.90
2017-11-27T12:31:02.875Z,89.90
2017-11-27T12:34:13.477Z,90.30
2017-11-27T12:37:24.199Z,90.40
2017-11-27T12:40:33.901Z,90.60
2017-11-27T12:43:44.569Z,89.80
2017-11-27T12:46:55.196Z,90.30
2017-11-27T12:50:05.656Z,90.40
2017-11-27T12:53:16.115Z,89.40
2017-11-27T12:56:26.209Z,89.40
2017-11-27T12:59:36.006Z,90.20
2017-11-27T13:02:45.670Z,89.50
2017-11-27T13:05:55.642Z,90.20
2017-11-27T13:09:06.978Z,90.00
2017-11-27T13:12:16.585Z,90.00
2017-11-27T13:15:26.481Z,89.50
2017-11-27T13:18:36.280Z,90.60
2017-11-27T13:21:45.967Z,89.20
2017-11-27T13:24:56.635Z,89.10
2017-11-27T13:28:06.359Z,88.90
2017-11-27T13:31:17.012Z,90.00
2017-11-27T13:34:27.782Z,90.20
2017-11-27T13:37:39.172Z,89.90
2017-11-27T13:40:50.137Z,90.20
2017-11-27T13:43:59.937Z,90.20
2017-11-27T13:47:10.210Z,90.30
2017-11-27T13:50:21.251Z,90.30
2017-11-27T13:53:31.137Z,90.30
2017-11-27T13:56:42.556Z,90.70
2017-11-27T13:59:52.612Z,90.60
2017-11-27T14:03:03.285Z,90.70
2017-11-27T14:06:14.018Z,90.80
2017-11-27T14:09:25.160Z,91.10
2017-11-27T14:12:35.216Z,91.10
2017-11-27T14:15:46.021Z,91.10
2017-11-27T14:18:55.863Z,91.60
2017-11-27T14:22:05.598Z,91.60
2017-11-27T14:25:15.601Z,91.80
2017-11-27T14:28:25.570Z,91.70
2017-11-27T14:31:36.294Z,91.60
2017-11-27T14:34:46.305Z,91.60
2017-11-27T14:37:56.739Z,91.90
2017-11-27T14:41:06.303Z,92.00
2017-11-27T14:44:16.509Z,92.10
2017-11-27T14:47:27.482Z,92.20
2017-11-27T14:50:37.752Z,92.20
2017-11-27T14:53:47.329Z,92.50
2017-11-27T14:56:56.944Z,92.50
2017-11-27T15:00:06.621Z,92.90
2017-11-27T15:03:17.440Z,92.90
2017-11-27T15:06:27.262Z,92.90
2017-11-27T15:09:37.279Z,93.00
2017-11-27T15:12:46.666Z,93.30
2017-11-27T15:15:57.204Z,93.80
2017-11-27T15:19:06.873Z,93.70
2017-11-27T15:22:16.862Z,93.60
2017-11-27T15:25:27.943Z,93.80
2017-11-27T15:28:38.795Z,93.80
2017-11-27T15:31:49.565Z,93.70
2017-11-27T15:34:59.569Z,93.70
2017-11-27T15:38:09.337Z,93.80
2017-11-27T15:41:19.153Z,93.90
2017-11-27T15:44:29.358Z,93.80
2017-11-27T15:47:39.102Z,93.70
2017-11-27T15:50:49.453Z,93.90
2017-11-27T15:53:59.489Z,93.90
2017-11-27T15:57:10.014Z,93.70
2017-11-27T16:00:20.577Z,93.90
2017-11-27T16:03:30.622Z,93.90
2017-11-27T16:06:40.160Z,93.90
2017-11-27T16:09:49.743Z,94.00
2017-11-27T16:12:59.100Z,93.90
2017-11-27T16:16:08.918Z,93.80
2017-11-27T16:19:18.531Z,93.90
2017-11-27T16:22:29.443Z,94.10
2017-11-27T16:25:39.883Z,94.00
2017-11-27T16:28:49.892Z,94.00
2017-11-27T16:31:59.687Z,94.20
2017-11-27T16:35:10.263Z,94.30
2017-11-27T16:38:20.421Z,94.70
2017-11-27T16:41:30.635Z,94.90
2017-11-27T16:44:40.974Z,95.40
2017-11-27T16:47:50.916Z,95.40
2017-11-27T16:51:00.789Z,95.90
2017-11-27T16:54:11.323Z,96.10
2017-11-27T16:57:22.304Z,96.30
2017-11-27T17:00:32.195Z,96.20
2017-11-27T17:03:42.455Z,96.50
2017-11-27T17:06:52.905Z,96.90
2017-11-27T17:10:03.883Z,96.80
2017-11-27T17:13:13.806Z,97.10
2017-11-27T17:16:24.694Z,97.20
2017-11-27T17:19:34.190Z,97.30
2017-11-27T17:22:44.057Z,97.50
2017-11-27T17:25:53.656Z,97.70
2017-11-27T17:29:03.439Z,97.90
2017-11-27T17:32:13.013Z,98.20
2017-11-27T17:35:23.275Z,98.30
2017-11-27T17:38:33.716Z,98.70
2017-11-27T17:41:44.225Z,98.40
2017-11-27T17:44:54.021Z,98.40
2017-11-27T17:48:03.693Z,98.60
2017-11-27T17:51:14.422Z,98.90
2017-11-27T17:54:24.841Z,99.00
2017-11-27T17:57:34.805Z,99.00
2017-11-27T18:00:44.516Z,99.20
2017-11-27T18:03:55.265Z,99.50
2017-11-27T18:07:05.266Z,99.50
2017-11-27T18:10:15.783Z,99.50
2017-11-27T18:13:25.764Z,99.30
2017-11-27T18:16:36.271Z,99.60
2017-11-27T18:19:46.149Z,99.60
2017-11-27T18:22:55.762Z,99.60
2017-11-27T18:26:05.504Z,99.70
2017-11-27T18:29:15.998Z,99.70
2017-11-27T18:32:26.006Z,99.70
2017-11-27T18:35:35.716Z,99.80
2017-11-27T18:38:45.322Z,99.90
2017-11-27T18:41:55.026Z,99.60
2017-11-27T18:45:04.505Z,99.70
2017-11-27T18:48:14.301Z,99.50
2017-11-27T18:51:24.462Z,99.30
2017-11-27T18:54:34.563Z,99.30
2017-11-27T18:57:44.567Z,99.50
2017-11-27T19:00:54.117Z,99.40
2017-11-27T19:04:03.855Z,99.30
2017-11-27T19:07:14.232Z,99.30
2017-11-27T19:10:24.284Z,99.30
2017-11-27T19:13:34.576Z,99.20
2017-11-27T19:16:44.479Z,99.20
2017-11-27T19:19:55.124Z,99.20
2017-11-27T19:23:05.044Z,99.20
2017-11-27T19:26:14.691Z,99.30
2017-11-27T19:29:24.511Z,99.30
2017-11-27T19:32:34.265Z,99.40
2017-11-27T19:35:44.244Z,99.30
2017-11-27T19:38:53.601Z,99.20
2017-11-27T19:42:03.140Z,99.30
2017-11-27T19:45:13.587Z,99.30
2017-11-27T19:48:23.293Z,99.10
2017-11-27T19:51:32.933Z,99.00
2017-11-27T19:54:42.649Z,98.90
2017-11-27T19:57:53.100Z,99.00
2017-11-27T20:01:02.987Z,99.00
2017-11-27T20:04:12.909Z,98.70
2017-11-27T20:07:22.279Z,98.80
2017-11-27T20:10:32.280Z,98.80
2017-11-27T20:13:42.799Z,98.40
2017-11-27T20:16:52.695Z,98.30
2017-11-27T20:20:02.512Z,98.30
2017-11-27T20:23:12.289Z,98.00
2017-11-27T20:26:22.654Z,98.00
2017-11-27T20:29:32.907Z,97.90
2017-11-27T20:32:42.608Z,98.00
2017-11-27T20:35:51.889Z,97.80
2017-11-27T20:39:02.561Z,98.00
2017-11-27T20:42:12.337Z,98.00
2017-11-27T20:45:22.857Z,97.80
2017-11-27T20:48:32.858Z,97.80
2017-11-27T20:51:42.557Z,97.60
2017-11-27T20:54:52.291Z,97.50
2017-11-27T20:58:01.843Z,97.30
2017-11-27T21:01:12.519Z,97.20
2017-11-27T21:04:22.055Z,97.10
2017-11-27T21:07:32.744Z,97.20
2017-11-27T21:10:42.630Z,97.10
2017-11-27T21:13:52.408Z,97.30
2017-11-27T21:17:02.301Z,97.10
2017-11-27T21:20:12.675Z,97.10
2017-11-27T21:23:22.297Z,96.80
2017-11-27T21:26:32.053Z,97.00
2017-11-27T21:29:42.586Z,97.00
2017-11-27T21:32:53.000Z,97.20
2017-11-27T21:36:03.925Z,96.90
2017-11-27T21:39:13.415Z,96.80
2017-11-27T21:42:24.617Z,97.00
2017-11-27T21:45:35.118Z,97.40
2017-11-27T21:48:44.907Z,97.20
2017-11-27T21:51:54.694Z,97.20
2017-11-27T21:55:05.091Z,97.50
2017-11-27T21:58:14.619Z,97.20
2017-11-27T22:01:24.683Z,97.50
2017-11-27T22:04:34.938Z,97.30
2017-11-27T22:07:46.332Z,97.30
2017-11-27T22:10:57.764Z,97.30
2017-11-27T22:14:08.657Z,97.20
2017-11-27T22:17:18.413Z,97.20
2017-11-27T22:20:29.390Z,97.10
2017-11-27T22:23:39.816Z,97.00
2017-11-27T22:26:50.200Z,97.10
2017-11-27T22:30:00.861Z,97.20
2017-11-27T22:33:10.864Z,97.00
2017-11-27T22:36:20.256Z,96.70
2017-11-27T22:39:30.183Z,96.70
2017-11-27T22:42:39.726Z,96.70
2017-11-27T22:45:49.785Z,96.70
2017-11-27T22:48:59.662Z,96.80
2017-11-27T22:52:09.098Z,96.90
2017-11-27T22:55:18.664Z,97.00
2017-11-27T22:58:28.530Z,96.80
2017-11-27T23:01:39.043Z,96.70
2017-11-27T23:04:50.077Z,96.70
2017-11-27T23:08:00.624Z,96.60
2017-11-27T23:11:10.756Z,96.50
2017-11-27T23:14:20.383Z,96.70
2017-11-27T23:17:30.008Z,96.60
2017-11-27T23:20:40.213Z,96.60
2017-11-27T23:23:50.970Z,96.80
2017-11-27T23:27:01.020Z,96.70
2017-11-27T23:30:10.564Z,96.60
2017-11-27T23:33:21.548Z,96.50
2017-11-27T23:36:31.188Z,96.50
2017-11-27T23:39:40.733Z,96.50
2017-11-27T23:42:51.287Z,96.70
2017-11-27T23:46:00.990Z,96.50
2017-11-27T23:49:10.604Z,96.40
2017-11-27T23:52:21.329Z,96.70
2017-11-27T23:55:31.260Z,96.60
2017-11-27T23:58:40.905Z,96.50
